createdAt,value
2019-03-10T00:01:01.690Z,98579.85
2019-03-10T00:03:05.790Z,98581.55
2019-03-10T00:05:09.641Z,98571.99
2019-03-10T00:07:13.366Z,98564.94
2019-03-10T00:09:17.143Z,98565.98
2019-03-10T00:11:20.861Z,98567.02
2019-03-10T00:13:24.711Z,98555.66
2019-03-10T00:15:28.651Z,98552.63
2019-03-10T00:17:32.522Z,98554.30
2019-03-10T00:19:36.862Z,98548.34
2019-03-10T00:21:40.586Z,98556.17
2019-03-10T00:23:44.440Z,98555.59
2019-03-10T00:25:48.282Z,98557.71
2019-03-10T00:27:52.096Z,98551.70
2019-03-10T00:29:55.862Z,98553.05
2019-03-10T00:31:59.716Z,98549.51
2019-03-10T00:34:03.435Z,98558.34
2019-03-10T00:36:07.213Z,98545.95
2019-03-10T00:38:11.117Z,98545.57
2019-03-10T00:40:45.375Z,98544.61
2019-03-10T00:43:17.194Z,98540.54
2019-03-10T00:46:08.287Z,98526.70
2019-03-10T00:49:05.401Z,98520.51
2019-03-10T00:51:34.469Z,98520.27
2019-03-10T00:53:38.176Z,98505.66
2019-03-10T00:55:41.956Z,98492.80
2019-03-10T00:57:45.881Z,98494.96
2019-03-10T00:59:49.659Z,98486.55
2019-03-10T01:01:53.580Z,98489.33
2019-03-10T01:03:57.304Z,98493.67
2019-03-10T01:06:01.078Z,98488.62
2019-03-10T01:08:04.917Z,98489.80
2019-03-10T01:10:08.906Z,98495.59
2019-03-10T01:12:12.888Z,98489.40
2019-03-10T01:14:16.613Z,98486.41
2019-03-10T01:16:20.937Z,98486.63
2019-03-10T01:18:26.287Z,98487.70
2019-03-10T01:20:31.080Z,98484.22
2019-03-10T01:22:35.279Z,98481.05
2019-03-10T01:24:38.954Z,98476.36
2019-03-10T01:26:43.150Z,98489.05
2019-03-10T01:28:46.912Z,98485.45
2019-03-10T01:31:00.698Z,98476.42
2019-03-10T01:33:30.464Z,98472.28
2019-03-10T01:35:37.358Z,98471.45
2019-03-10T01:37:41.193Z,98461.31
2019-03-10T01:39:44.908Z,98452.80
2019-03-10T01:41:48.755Z,98437.03
2019-03-10T01:43:52.477Z,98432.28
2019-03-10T01:45:56.213Z,98427.05
2019-03-10T01:48:00.029Z,98424.20
2019-03-10T01:50:03.938Z,98412.92
2019-03-10T01:52:07.851Z,98414.46
2019-03-10T01:54:11.673Z,98409.74
2019-03-10T01:56:15.375Z,98410.52
2019-03-10T01:58:19.086Z,98401.24
2019-03-10T02:00:22.959Z,98394.77
2019-03-10T02:02:26.828Z,98392.28
2019-03-10T02:04:30.537Z,98392.00
2019-03-10T02:06:34.276Z,98397.94
2019-03-10T02:08:38.105Z,98396.00
2019-03-10T02:10:41.865Z,98396.00
2019-03-10T02:12:45.698Z,98383.88
2019-03-10T02:14:49.411Z,98378.73
2019-03-10T02:16:53.116Z,98374.80
2019-03-10T02:18:56.967Z,98373.04
2019-03-10T02:21:00.660Z,98376.19
2019-03-10T02:23:04.497Z,98372.45
2019-03-10T02:25:08.464Z,98372.30
2019-03-10T02:27:12.180Z,98375.66
2019-03-10T02:29:16.011Z,98370.55
2019-03-10T02:31:19.729Z,98373.25
2019-03-10T02:33:23.476Z,98371.01
2019-03-10T02:35:27.174Z,98367.47
2019-03-10T02:37:30.896Z,98361.80
2019-03-10T02:39:34.602Z,98359.33
2019-03-10T02:41:38.311Z,98347.37
2019-03-10T02:43:42.031Z,98355.73
2019-03-10T02:45:45.806Z,98355.45
2019-03-10T02:47:49.599Z,98361.16
2019-03-10T02:49:53.320Z,98358.22
2019-03-10T02:51:57.068Z,98355.85
2019-03-10T02:54:00.885Z,98353.45
2019-03-10T02:56:04.681Z,98340.66
2019-03-10T02:58:08.456Z,98335.70
2019-03-10T03:00:12.486Z,98324.74
2019-03-10T03:02:16.202Z,98321.20
2019-03-10T03:04:19.942Z,98309.53
2019-03-10T03:06:23.846Z,98309.72
2019-03-10T03:08:27.799Z,98313.66
2019-03-10T03:10:31.562Z,98312.46
2019-03-10T03:12:35.351Z,98309.48
2019-03-10T03:14:39.293Z,98307.05
2019-03-10T03:16:42.997Z,98302.77
2019-03-10T03:18:46.743Z,98299.80
2019-03-10T03:20:50.462Z,98288.38
2019-03-10T03:22:54.229Z,98280.44
2019-03-10T03:24:57.900Z,98278.20
2019-03-10T03:27:02.706Z,98265.11
2019-03-10T03:29:06.499Z,98260.63
2019-03-10T03:31:10.221Z,98255.45
2019-03-10T03:33:14.012Z,98247.27
2019-03-10T03:35:54.530Z,98250.44
2019-03-10T03:37:58.348Z,98249.84
2019-03-10T03:40:02.084Z,98246.77
2019-03-10T03:42:05.768Z,98247.02
2019-03-10T03:44:09.576Z,98243.20
2019-03-10T03:46:13.281Z,98239.14
2019-03-10T03:48:17.095Z,98231.23
2019-03-10T03:50:20.809Z,98223.11
2019-03-10T03:52:24.498Z,98226.89
2019-03-10T03:54:28.294Z,98220.86
2019-03-10T03:56:31.996Z,98228.98
2019-03-10T03:58:35.797Z,98228.19
2019-03-10T04:00:40.176Z,98216.22
2019-03-10T04:02:44.023Z,98209.75
2019-03-10T04:04:47.820Z,98205.97
2019-03-10T04:06:51.527Z,98208.52
2019-03-10T04:08:55.329Z,98202.02
2019-03-10T04:10:59.055Z,98211.50
2019-03-10T04:13:02.762Z,98232.95
2019-03-10T04:15:06.646Z,98231.41
2019-03-10T04:17:10.345Z,98230.42
2019-03-10T04:19:14.223Z,98242.73
2019-03-10T04:21:17.923Z,98235.55
2019-03-10T04:23:21.631Z,98229.70
2019-03-10T04:25:25.423Z,98226.58
2019-03-10T04:27:29.121Z,98223.98
2019-03-10T04:29:32.842Z,98216.21
2019-03-10T04:31:36.553Z,98204.07
2019-03-10T04:33:40.265Z,98201.11
2019-03-10T04:37:52.819Z,98190.62
2019-03-10T04:39:56.592Z,98182.25
2019-03-10T04:42:00.317Z,98174.41
2019-03-10T04:44:04.145Z,98172.75
2019-03-10T04:46:07.852Z,98178.48
2019-03-10T04:48:11.586Z,98159.78
2019-03-10T04:50:16.508Z,98150.91
2019-03-10T04:52:20.295Z,98149.59
2019-03-10T04:54:49.352Z,98135.79
2019-03-10T04:57:03.315Z,98125.47
2019-03-10T04:59:07.011Z,98126.20
2019-03-10T05:01:10.859Z,98119.37
2019-03-10T05:03:14.645Z,98115.31
2019-03-10T05:05:18.489Z,98100.66
2019-03-10T05:07:22.194Z,98091.96
2019-03-10T05:09:26.117Z,98074.08
2019-03-10T05:11:29.818Z,98060.17
2019-03-10T05:13:33.520Z,98072.84
2019-03-10T05:15:37.254Z,98062.73
2019-03-10T05:17:41.054Z,98052.15
2019-03-10T05:19:44.796Z,98040.73
2019-03-10T05:21:48.501Z,98039.91
2019-03-10T05:23:52.493Z,98035.01
2019-03-10T05:25:56.347Z,98031.25
2019-03-10T05:28:00.061Z,98017.70
2019-03-10T05:30:04.028Z,98014.20
2019-03-10T05:32:07.729Z,98005.25
2019-03-10T05:34:11.440Z,97994.41
2019-03-10T05:36:15.320Z,97991.45
2019-03-10T05:38:19.161Z,97988.20
2019-03-10T05:40:22.913Z,97979.80
2019-03-10T05:42:26.624Z,97980.33
2019-03-10T05:44:30.412Z,97984.35
2019-03-10T05:46:34.171Z,97977.27
2019-03-10T05:48:37.946Z,97969.40
2019-03-10T05:50:41.933Z,97968.00
2019-03-10T05:52:45.633Z,97964.20
2019-03-10T05:54:49.549Z,97963.11
2019-03-10T05:56:53.248Z,97957.69
2019-03-10T05:58:56.953Z,97968.17
2019-03-10T06:01:00.785Z,97953.73
2019-03-10T06:03:04.580Z,97951.03
2019-03-10T06:05:08.468Z,97956.19
2019-03-10T06:07:12.194Z,97954.53
2019-03-10T06:09:15.901Z,97943.70
2019-03-10T06:11:19.745Z,97944.48
2019-03-10T06:13:23.473Z,97940.15
2019-03-10T06:15:27.333Z,97932.55
2019-03-10T06:17:31.044Z,97929.84
2019-03-10T06:19:34.760Z,97929.31
2019-03-10T06:21:38.488Z,97924.47
2019-03-10T06:23:42.179Z,97924.78
2019-03-10T06:25:45.918Z,97924.83
2019-03-10T06:27:49.617Z,97926.23
2019-03-10T06:29:53.325Z,97926.53
2019-03-10T06:31:57.060Z,97919.19
2019-03-10T06:34:00.767Z,97920.58
2019-03-10T06:36:04.689Z,97916.27
2019-03-10T06:38:08.396Z,97911.67
2019-03-10T06:40:12.411Z,97911.72
2019-03-10T06:42:16.126Z,97914.73
2019-03-10T06:44:21.094Z,97908.52
2019-03-10T06:46:24.959Z,97900.66
2019-03-10T06:48:28.666Z,97904.28
2019-03-10T06:50:32.392Z,97899.20
2019-03-10T06:52:36.171Z,97901.13
2019-03-10T06:54:39.879Z,97898.99
2019-03-10T06:56:43.665Z,97887.09
2019-03-10T06:58:47.371Z,97883.34
2019-03-10T07:00:51.156Z,97881.75
2019-03-10T07:02:54.852Z,97874.68
2019-03-10T07:04:58.560Z,97869.30
2019-03-10T07:07:02.354Z,97867.72
2019-03-10T07:09:06.226Z,97862.03
2019-03-10T07:11:10.033Z,97858.00
2019-03-10T07:13:13.733Z,97851.80
2019-03-10T07:15:17.536Z,97846.14
2019-03-10T07:17:21.322Z,97844.53
2019-03-10T07:19:25.023Z,97836.96
2019-03-10T07:21:28.742Z,97825.62
2019-03-10T07:23:32.451Z,97821.59
2019-03-10T07:25:36.151Z,97812.14
2019-03-10T07:28:02.007Z,97812.97
2019-03-10T07:30:25.105Z,97808.11
2019-03-10T07:32:40.310Z,97800.80
2019-03-10T07:34:56.215Z,97797.00
2019-03-10T07:37:31.244Z,97791.58
2019-03-10T07:40:08.910Z,97780.20
2019-03-10T07:42:30.964Z,97775.59
2019-03-10T07:44:56.456Z,97774.77
2019-03-10T07:47:21.994Z,97775.63
2019-03-10T07:49:30.507Z,97777.02
2019-03-10T07:51:40.559Z,97778.38
2019-03-10T07:53:54.309Z,97740.41
2019-03-10T07:56:04.551Z,97754.30
2019-03-10T07:58:27.303Z,97747.28
2019-03-10T08:00:37.759Z,97730.18
2019-03-10T08:03:19.083Z,97744.84
2019-03-10T08:05:40.133Z,97743.48
2019-03-10T08:08:01.470Z,97729.33
2019-03-10T08:10:15.100Z,97740.17
2019-03-10T08:12:27.435Z,97732.06
2019-03-10T08:14:38.904Z,97708.95
2019-03-10T08:16:58.865Z,97699.47
2019-03-10T08:19:11.965Z,97713.58
2019-03-10T08:21:49.648Z,97714.14
2019-03-10T08:24:08.312Z,97710.38
2019-03-10T08:26:17.662Z,97699.61
2019-03-10T08:28:30.048Z,97711.79
2019-03-10T08:31:02.420Z,97700.38
2019-03-10T08:33:27.932Z,97689.30
2019-03-10T08:35:50.779Z,97691.39
2019-03-10T08:38:06.665Z,97684.58
2019-03-10T08:40:32.935Z,97678.36
2019-03-10T08:42:51.184Z,97679.48
2019-03-10T08:45:23.117Z,97670.56
2019-03-10T08:52:59.770Z,97656.45
2019-03-10T08:55:25.514Z,97654.30
2019-03-10T08:57:50.778Z,97657.80
2019-03-10T09:00:22.399Z,97662.41
2019-03-10T09:02:43.690Z,97652.12
2019-03-10T09:05:18.579Z,97638.55
2019-03-10T09:07:40.440Z,97642.91
2019-03-10T09:10:05.455Z,97622.91
2019-03-10T09:12:15.026Z,97619.16
2019-03-10T09:14:45.749Z,97625.96
2019-03-10T09:17:01.980Z,97620.00
2019-03-10T09:19:33.715Z,97605.69
2019-03-10T09:22:02.959Z,97599.22
2019-03-10T09:24:37.893Z,97592.47
2019-03-10T09:26:53.488Z,97574.89
2019-03-10T09:29:19.447Z,97567.33
2019-03-10T09:31:44.941Z,97563.80
2019-03-10T09:34:19.837Z,97557.92
2019-03-10T09:36:40.973Z,97540.64
2019-03-10T09:38:53.822Z,97540.73
2019-03-10T09:41:15.057Z,97537.81
2019-03-10T09:43:46.858Z,97525.11
2019-03-10T09:45:59.572Z,97518.66
2019-03-10T09:48:15.862Z,97515.17
2019-03-10T09:50:30.495Z,97512.48
2019-03-10T09:52:47.416Z,97510.08
2019-03-10T09:55:04.748Z,97504.66
2019-03-10T09:57:24.439Z,97494.32
2019-03-10T09:59:53.322Z,97507.64
2019-03-10T10:02:13.065Z,97488.89
2019-03-10T10:04:38.912Z,97486.70
2019-03-10T10:06:48.568Z,97485.88
2019-03-10T10:09:11.416Z,97485.87
2019-03-10T10:11:32.031Z,97477.45
2019-03-10T10:13:41.126Z,97475.83
2019-03-10T10:16:06.999Z,97467.36
2019-03-10T10:18:29.866Z,97467.08
2019-03-10T10:20:41.115Z,97468.14
2019-03-10T10:22:53.773Z,97451.22
2019-03-10T10:25:09.070Z,97445.45
2019-03-10T10:27:23.379Z,97453.56
2019-03-10T10:29:34.154Z,97462.20
2019-03-10T10:31:56.894Z,97433.00
2019-03-10T10:34:19.773Z,97435.31
2019-03-10T10:36:41.091Z,97439.59
2019-03-10T10:38:52.917Z,97427.73
2019-03-10T10:41:15.875Z,97417.59
2019-03-10T10:43:34.153Z,97406.09
2019-03-10T10:45:55.514Z,97405.13
2019-03-10T10:48:15.488Z,97399.28
2019-03-10T10:50:26.126Z,97398.05
2019-03-10T10:52:40.765Z,97390.90
2019-03-10T10:55:08.854Z,97395.77
2019-03-10T10:57:46.497Z,97380.73
2019-03-10T10:59:55.356Z,97371.24
2019-03-10T11:02:04.742Z,97377.38
2019-03-10T11:04:45.753Z,97372.70
2019-03-10T11:07:09.372Z,97374.62
2019-03-10T11:09:19.095Z,97362.80
2019-03-10T11:11:34.991Z,97355.98
2019-03-10T11:14:00.708Z,97353.08
2019-03-10T11:16:10.072Z,97349.61
2019-03-10T11:18:31.130Z,97327.92
2019-03-10T11:20:47.340Z,97312.27
2019-03-10T11:23:10.079Z,97310.79
2019-03-10T11:25:21.772Z,97302.72
2019-03-10T11:27:31.020Z,97307.62
2019-03-10T11:29:41.178Z,97295.19
2019-03-10T11:32:01.193Z,97313.24
2019-03-10T11:34:13.090Z,97284.66
2019-03-10T11:36:22.661Z,97289.35
2019-03-10T11:38:32.856Z,97285.38
2019-03-10T11:41:04.903Z,97287.13
2019-03-10T11:43:36.748Z,97272.07
2019-03-10T11:45:47.892Z,97276.92
2019-03-10T11:47:58.833Z,97277.41
2019-03-10T11:50:19.489Z,97267.72
2019-03-10T11:52:37.406Z,97274.92
2019-03-10T11:54:58.633Z,97247.56
2019-03-10T11:57:21.368Z,97248.56
2019-03-10T11:59:29.146Z,97233.56
2019-03-10T12:01:46.969Z,97224.95
2019-03-10T12:04:19.006Z,97226.16
2019-03-10T12:06:35.071Z,97238.59
2019-03-10T12:08:58.405Z,97224.58
2019-03-10T12:11:02.205Z,97254.50
2019-03-10T12:13:06.026Z,97228.71
2019-03-10T12:15:10.373Z,97212.14
2019-03-10T12:17:14.083Z,97240.70
2019-03-10T12:19:17.899Z,97226.70
2019-03-10T12:21:21.720Z,97240.09
2019-03-10T12:23:25.614Z,97239.53
2019-03-10T12:25:29.347Z,97243.58
2019-03-10T12:27:33.099Z,97263.77
2019-03-10T12:29:36.836Z,97249.63
2019-03-10T12:31:40.548Z,97255.11
2019-03-10T12:33:44.261Z,97238.34
2019-03-10T12:35:48.212Z,97241.31
2019-03-10T12:37:51.915Z,97248.57
2019-03-10T12:39:55.670Z,97249.67
2019-03-10T12:41:59.391Z,97256.68
2019-03-10T12:44:03.170Z,97247.25
2019-03-10T12:46:06.902Z,97264.77
2019-03-10T12:48:10.621Z,97245.02
2019-03-10T12:50:14.507Z,97247.04
2019-03-10T12:52:18.242Z,97250.75
2019-03-10T12:54:21.939Z,97246.20
2019-03-10T12:56:25.690Z,97248.23
2019-03-10T12:58:29.405Z,97247.37
2019-03-10T13:00:33.266Z,97249.95
2019-03-10T13:02:37.074Z,97267.91
2019-03-10T13:04:40.782Z,97260.50
2019-03-10T13:06:44.661Z,97284.48
2019-03-10T13:08:48.389Z,97271.08
2019-03-10T13:10:52.201Z,97243.66
2019-03-10T13:12:55.911Z,97272.96
2019-03-10T13:15:00.196Z,97261.58
2019-03-10T13:17:04.111Z,97277.99
2019-03-10T13:19:07.897Z,97268.66
2019-03-10T13:21:11.675Z,97239.47
2019-03-10T13:23:15.468Z,97235.31
2019-03-10T13:25:19.307Z,97231.95
2019-03-10T13:27:23.097Z,97232.42
2019-03-10T13:29:26.897Z,97234.03
2019-03-10T13:31:30.713Z,97229.70
2019-03-10T13:33:34.505Z,97264.13
2019-03-10T13:35:38.420Z,97237.38
2019-03-10T13:37:42.203Z,97241.74
2019-03-10T13:39:46.036Z,97227.14
2019-03-10T13:41:49.944Z,97239.88
2019-03-10T13:43:53.857Z,97242.84
2019-03-10T13:45:57.773Z,97235.89
2019-03-10T13:48:01.573Z,97229.67
2019-03-10T13:50:05.956Z,97250.33
2019-03-10T13:52:09.725Z,97226.16
2019-03-10T13:54:13.426Z,97239.39
2019-03-10T13:56:17.342Z,97234.05
2019-03-10T13:58:21.168Z,97247.37
2019-03-10T14:00:25.366Z,97262.70
2019-03-10T14:02:29.230Z,97237.09
2019-03-10T14:04:33.107Z,97229.57
2019-03-10T14:06:37.003Z,97224.79
2019-03-10T14:08:40.717Z,97241.67
2019-03-10T14:10:44.523Z,97244.91
2019-03-10T14:12:48.233Z,97250.47
2019-03-10T14:14:52.031Z,97245.91
2019-03-10T14:16:55.862Z,97263.17
2019-03-10T14:18:59.570Z,97238.92
2019-03-10T14:21:03.491Z,97246.77
2019-03-10T14:23:07.340Z,97247.55
2019-03-10T14:25:11.211Z,97240.70
2019-03-10T14:27:15.026Z,97259.88
2019-03-10T14:29:18.796Z,97232.80
2019-03-10T14:31:22.591Z,97258.60
2019-03-10T14:33:26.405Z,97243.91
2019-03-10T14:35:30.248Z,97265.00
2019-03-10T14:37:34.088Z,97266.00
2019-03-10T14:39:38.005Z,97257.98
2019-03-10T14:41:41.852Z,97267.81
2019-03-10T14:43:45.568Z,97285.18
2019-03-10T14:45:49.344Z,97272.69
2019-03-10T14:47:53.179Z,97284.69
2019-03-10T14:49:56.880Z,97283.58
2019-03-10T14:52:00.628Z,97281.06
2019-03-10T14:54:04.423Z,97280.91
2019-03-10T14:56:08.166Z,97305.91
2019-03-10T14:58:11.929Z,97304.91
2019-03-10T15:00:18.899Z,97298.31
2019-03-10T15:02:22.765Z,97292.68
2019-03-10T15:04:26.525Z,97295.37
2019-03-10T15:06:30.304Z,97294.36
2019-03-10T15:08:34.004Z,97294.32
2019-03-10T15:10:37.786Z,97301.70
2019-03-10T15:12:41.632Z,97313.16
2019-03-10T15:14:45.352Z,97291.20
2019-03-10T15:16:49.133Z,97314.91
2019-03-10T15:18:52.836Z,97303.70
2019-03-10T15:20:56.623Z,97305.77
2019-03-10T15:23:00.363Z,97313.98
2019-03-10T15:25:04.474Z,97294.83
2019-03-10T15:27:08.231Z,97305.03
2019-03-10T15:29:12.176Z,97301.20
2019-03-10T15:31:16.080Z,97298.19
2019-03-10T15:33:19.834Z,97321.83
2019-03-10T15:35:23.643Z,97344.88
2019-03-10T15:37:27.389Z,97302.44
2019-03-10T15:39:31.128Z,97307.70
2019-03-10T15:41:34.873Z,97315.23
2019-03-10T15:43:38.628Z,97312.91
2019-03-10T15:45:42.369Z,97328.25
2019-03-10T15:47:46.183Z,97310.23
2019-03-10T15:49:49.980Z,97337.57
2019-03-10T15:51:53.813Z,97320.97
2019-03-10T15:53:57.524Z,97314.16
2019-03-10T15:56:01.245Z,97351.88
2019-03-10T15:58:05.162Z,97341.52
2019-03-10T16:00:12.913Z,97355.30
2019-03-10T16:02:16.740Z,97359.43
2019-03-10T16:04:22.067Z,97350.50
2019-03-10T16:06:25.866Z,97360.45
2019-03-10T16:08:29.654Z,97371.17
2019-03-10T16:10:33.451Z,97362.79
2019-03-10T16:12:37.376Z,97382.13
2019-03-10T16:14:41.081Z,97379.17
2019-03-10T16:16:44.867Z,97378.68
2019-03-10T16:18:50.958Z,97398.33
2019-03-10T16:20:54.111Z,97402.77
2019-03-10T16:22:57.844Z,97399.27
2019-03-10T16:25:01.564Z,97395.23
2019-03-10T16:27:05.364Z,97418.70
2019-03-10T16:29:09.138Z,97435.11
2019-03-10T16:31:12.811Z,97442.30
2019-03-10T16:33:16.560Z,97431.97
2019-03-10T16:35:22.251Z,97437.48
2019-03-10T16:37:25.874Z,97451.97
2019-03-10T16:39:29.661Z,97447.91
2019-03-10T16:41:33.373Z,97458.06
2019-03-10T16:43:37.194Z,97458.34
2019-03-10T16:45:40.916Z,97479.38
2019-03-10T16:47:44.815Z,97470.66
2019-03-10T16:49:48.545Z,97490.88
2019-03-10T16:51:52.255Z,97499.89
2019-03-10T16:53:56.181Z,97513.80
2019-03-10T16:56:03.023Z,97531.00
2019-03-10T16:58:05.435Z,97509.52
2019-03-10T17:00:09.708Z,97516.05
2019-03-10T17:02:13.419Z,97496.70
2019-03-10T17:04:17.180Z,97527.80
2019-03-10T17:06:20.929Z,97567.56
2019-03-10T17:08:24.711Z,97536.52
2019-03-10T17:10:28.586Z,97564.84
2019-03-10T17:12:32.343Z,97553.13
2019-03-10T17:14:36.119Z,97579.58
2019-03-10T17:16:39.900Z,97576.86
2019-03-10T17:18:43.656Z,97593.45
2019-03-10T17:20:47.426Z,97577.39
2019-03-10T17:22:51.324Z,97592.34
2019-03-10T17:24:55.038Z,97578.18
2019-03-10T17:26:58.966Z,97597.48
2019-03-10T17:29:02.813Z,97598.30
2019-03-10T17:31:06.608Z,97607.54
2019-03-10T17:33:10.468Z,97600.72
2019-03-10T17:35:14.545Z,97610.81
2019-03-10T17:37:18.258Z,97623.59
2019-03-10T17:39:22.167Z,97661.16
2019-03-10T17:41:25.864Z,97639.38
2019-03-10T17:43:29.706Z,97657.60
2019-03-10T17:45:33.495Z,97660.86
2019-03-10T17:47:37.221Z,97674.72
2019-03-10T17:49:40.924Z,97681.24
2019-03-10T17:51:44.632Z,97691.84
2019-03-10T17:53:48.389Z,97684.48
2019-03-10T17:55:52.245Z,97712.52
2019-03-10T17:57:56.228Z,97703.27
2019-03-10T17:59:59.941Z,97713.56
2019-03-10T18:02:09.084Z,97719.29
2019-03-10T18:04:09.144Z,97723.66
2019-03-10T18:06:12.859Z,97715.75
2019-03-10T18:08:16.689Z,97745.41
2019-03-10T18:10:20.518Z,97754.37
2019-03-10T18:12:24.231Z,97742.94
2019-03-10T18:14:27.976Z,97763.06
2019-03-10T18:16:33.483Z,97754.89
2019-03-10T18:18:37.567Z,97779.58
2019-03-10T18:20:41.285Z,97763.77
2019-03-10T18:22:45.153Z,97780.36
2019-03-10T18:24:48.899Z,97777.88
2019-03-10T18:26:52.606Z,97779.69
2019-03-10T18:28:56.404Z,97787.53
2019-03-10T18:31:00.192Z,97786.66
2019-03-10T18:33:03.988Z,97785.27
2019-03-10T18:35:07.797Z,97798.30
2019-03-10T18:37:11.495Z,97758.59
2019-03-10T18:39:15.232Z,97778.44
2019-03-10T18:41:18.936Z,97791.20
2019-03-10T18:43:24.909Z,97785.72
2019-03-10T18:45:28.143Z,97793.86
2019-03-10T18:47:31.864Z,97787.35
2019-03-10T18:49:35.614Z,97794.95
2019-03-10T18:51:39.387Z,97826.44
2019-03-10T18:53:43.149Z,97796.27
2019-03-10T18:55:46.868Z,97816.86
2019-03-10T18:57:50.791Z,97842.12
2019-03-10T18:59:54.624Z,97843.80
2019-03-10T19:01:58.310Z,97820.16
2019-03-10T19:04:02.055Z,97826.94
2019-03-10T19:06:05.913Z,97851.13
2019-03-10T19:08:09.641Z,97858.47
2019-03-10T19:10:13.888Z,97883.77
2019-03-10T19:12:17.614Z,97876.69
2019-03-10T19:14:21.355Z,97875.28
2019-03-10T19:16:25.103Z,97895.88
2019-03-10T19:18:28.818Z,97892.54
2019-03-10T19:20:32.603Z,97902.81
2019-03-10T19:22:36.395Z,97901.41
2019-03-10T19:24:40.192Z,97913.86
2019-03-10T19:26:43.904Z,97923.66
2019-03-10T19:28:47.627Z,97931.30
2019-03-10T19:30:51.332Z,97921.30
2019-03-10T19:32:55.135Z,97925.17
2019-03-10T19:34:58.874Z,97938.75
2019-03-10T19:37:02.603Z,97961.81
2019-03-10T19:39:07.428Z,97959.59
2019-03-10T19:41:11.257Z,97968.57
2019-03-10T19:43:14.967Z,97983.84
2019-03-10T19:45:18.925Z,98064.68
2019-03-10T19:47:22.634Z,98082.88
2019-03-10T19:49:26.374Z,98108.55
2019-03-10T19:51:30.186Z,98106.03
2019-03-10T19:53:33.930Z,98111.59
2019-03-10T19:55:37.659Z,98126.56
2019-03-10T19:57:41.380Z,98145.92
2019-03-10T19:59:45.195Z,98153.46
2019-03-10T20:01:48.997Z,98182.83
2019-03-10T20:03:52.833Z,98172.89
2019-03-10T20:05:56.530Z,98169.36
2019-03-10T20:08:00.236Z,98183.70
2019-03-10T20:10:04.473Z,98196.98
2019-03-10T20:12:09.032Z,98204.66
2019-03-10T20:14:12.763Z,98212.95
2019-03-10T20:16:16.476Z,98204.05
2019-03-10T20:18:20.186Z,98208.44
2019-03-10T20:20:24.026Z,98216.11
2019-03-10T20:22:27.737Z,98213.78
2019-03-10T20:24:31.557Z,98199.30
2019-03-10T20:26:35.291Z,98213.27
2019-03-10T20:28:39.135Z,98191.56
2019-03-10T20:30:42.919Z,98203.94
2019-03-10T20:32:46.663Z,98206.38
2019-03-10T20:34:50.397Z,98213.34
2019-03-10T20:36:54.085Z,98209.77
2019-03-10T20:38:57.783Z,98218.61
2019-03-10T20:41:01.654Z,98225.61
2019-03-10T20:43:05.455Z,98225.30
2019-03-10T20:45:09.411Z,98230.11
2019-03-10T20:47:13.120Z,98227.33
2019-03-10T20:49:16.847Z,98220.23
2019-03-10T20:51:20.562Z,98232.31
2019-03-10T20:53:24.266Z,98252.52
2019-03-10T20:55:28.064Z,98259.48
2019-03-10T20:57:31.776Z,98243.27
2019-03-10T20:59:35.497Z,98235.52
2019-03-10T21:01:39.354Z,98243.13
2019-03-10T21:03:43.062Z,98258.28
2019-03-10T21:05:46.815Z,98285.98
2019-03-10T21:07:50.604Z,98288.81
2019-03-10T21:09:54.443Z,98283.12
2019-03-10T21:11:58.151Z,98289.56
2019-03-10T21:14:01.845Z,98299.18
2019-03-10T21:16:05.582Z,98290.68
2019-03-10T21:18:09.300Z,98292.11
2019-03-10T21:20:14.655Z,98291.52
2019-03-10T21:22:20.876Z,98298.70
2019-03-10T21:24:23.793Z,98311.81
2019-03-10T21:26:27.640Z,98322.02
2019-03-10T21:28:31.443Z,98321.66
2019-03-10T21:30:35.376Z,98322.69
2019-03-10T21:32:39.179Z,98332.22
2019-03-10T21:34:42.916Z,98332.14
2019-03-10T21:36:46.672Z,98334.76
2019-03-10T21:38:50.531Z,98333.33
2019-03-10T21:40:54.344Z,98336.98
2019-03-10T21:42:58.060Z,98346.34
2019-03-10T21:45:01.888Z,98354.36
2019-03-10T21:47:05.720Z,98362.70
2019-03-10T21:49:09.468Z,98371.23
2019-03-10T21:51:13.255Z,98373.33
2019-03-10T21:53:16.956Z,98373.64
2019-03-10T21:55:20.840Z,98378.06
2019-03-10T21:57:24.562Z,98387.51
2019-03-10T21:59:28.319Z,98392.31
2019-03-10T22:01:32.093Z,98381.73
2019-03-10T22:03:35.937Z,98391.39
2019-03-10T22:05:39.691Z,98398.14
2019-03-10T22:07:43.486Z,98399.46
2019-03-10T22:09:47.181Z,98396.19
2019-03-10T22:11:51.029Z,98399.92
2019-03-10T22:13:54.756Z,98407.33
2019-03-10T22:15:58.697Z,98411.61
2019-03-10T22:18:02.399Z,98416.09
2019-03-10T22:20:06.787Z,98423.95
2019-03-10T22:22:10.499Z,98431.97
2019-03-10T22:24:14.199Z,98429.50
2019-03-10T22:26:18.054Z,98433.47
2019-03-10T22:28:21.846Z,98437.34
2019-03-10T22:30:25.623Z,98429.98
2019-03-10T22:32:29.298Z,98431.10
2019-03-10T22:34:33.009Z,98436.27
2019-03-10T22:36:36.846Z,98455.81
2019-03-10T22:38:40.606Z,98456.70
2019-03-10T22:40:44.455Z,98456.19
2019-03-10T22:42:48.312Z,98464.70
2019-03-10T22:44:52.034Z,98457.77
2019-03-10T22:46:55.778Z,98457.53
2019-03-10T22:48:59.478Z,98463.34
2019-03-10T22:51:03.217Z,98461.56
2019-03-10T22:53:06.939Z,98453.84
2019-03-10T22:55:10.815Z,98456.43
2019-03-10T22:57:14.637Z,98470.53
2019-03-10T22:59:18.367Z,98474.36
2019-03-10T23:01:22.272Z,98474.96
2019-03-10T23:03:26.012Z,98484.13
2019-03-10T23:05:29.738Z,98487.02
2019-03-10T23:07:33.429Z,98493.06
2019-03-10T23:09:37.136Z,98498.98
2019-03-10T23:11:40.956Z,98501.88
2019-03-10T23:13:44.666Z,98506.06
2019-03-10T23:15:48.484Z,98510.59
2019-03-10T23:17:52.172Z,98504.69
2019-03-10T23:19:55.881Z,98504.92
2019-03-10T23:21:59.690Z,98502.36
2019-03-10T23:24:03.417Z,98517.77
2019-03-10T23:26:07.132Z,98520.47
2019-03-10T23:28:10.847Z,98525.06
2019-03-10T23:30:14.819Z,98517.71
2019-03-10T23:32:18.624Z,98528.50
2019-03-10T23:34:22.338Z,98540.64
2019-03-10T23:36:26.066Z,98524.23
2019-03-10T23:38:29.772Z,98535.25
2019-03-10T23:40:33.485Z,98536.50
2019-03-10T23:42:37.283Z,98533.94
2019-03-10T23:44:40.986Z,98530.59
2019-03-10T23:46:44.777Z,98540.58
2019-03-10T23:48:48.487Z,98539.03
2019-03-10T23:50:52.274Z,98549.41
2019-03-10T23:52:55.991Z,98540.58
2019-03-10T23:54:59.692Z,98556.86
2019-03-10T23:57:03.497Z,98556.42
2019-03-10T23:59:07.198Z,98557.55
